createdAt,value
2023-01-19T00:02:47.580Z,8.15
2023-01-19T00:06:17.212Z,8.14
2023-01-19T00:09:47.278Z,8.16
2023-01-19T00:13:16.551Z,8.14
2023-01-19T00:16:46.423Z,8.11
2023-01-19T00:20:18.919Z,8.07
2023-01-19T00:23:48.171Z,8.04
2023-01-19T00:27:07.003Z,8.01
2023-01-19T00:30:36.120Z,7.99
2023-01-19T00:33:55.054Z,7.98
2023-01-19T00:37:24.409Z,7.98
2023-01-19T00:40:53.764Z,7.97
2023-01-19T00:44:22.924Z,7.95
2023-01-19T00:47:51.872Z,7.93
2023-01-19T00:51:21.796Z,7.92
2023-01-19T00:54:41.496Z,7.91
2023-01-19T00:58:10.317Z,7.91
2023-01-19T01:01:45.925Z,7.89
2023-01-19T01:05:15.704Z,7.87
2023-01-19T01:08:44.644Z,7.87
2023-01-19T01:12:13.620Z,7.87
2023-01-19T01:15:42.917Z,7.87
2023-01-19T01:19:12.019Z,7.82
2023-01-19T01:22:41.146Z,7.80
2023-01-19T01:26:00.122Z,7.77
2023-01-19T01:29:28.799Z,7.70
2023-01-19T01:32:57.518Z,7.64
2023-01-19T01:36:26.971Z,7.60
2023-01-19T01:39:48.325Z,7.53
2023-01-19T01:43:17.233Z,7.50
2023-01-19T01:46:46.164Z,7.44
2023-01-19T01:50:15.325Z,7.42
2023-01-19T01:53:50.597Z,7.39
2023-01-19T01:57:16.812Z,7.38
2023-01-19T02:00:45.648Z,7.38
2023-01-19T02:04:00.057Z,7.38
2023-01-19T02:07:27.565Z,7.36
2023-01-19T02:10:54.753Z,7.33
2023-01-19T02:14:23.808Z,7.29
2023-01-19T02:17:52.747Z,7.26
2023-01-19T02:21:11.581Z,7.25
2023-01-19T02:24:40.520Z,7.26
2023-01-19T02:28:09.635Z,7.27
2023-01-19T02:31:35.411Z,7.29
2023-01-19T02:35:04.793Z,7.30
2023-01-19T02:38:17.051Z,7.29
2023-01-19T02:41:46.243Z,7.28
2023-01-19T02:45:14.949Z,7.26
2023-01-19T02:48:40.347Z,7.25
2023-01-19T02:52:12.348Z,7.26
2023-01-19T02:55:56.171Z,7.26
2023-01-19T02:59:21.148Z,7.26
2023-01-19T03:03:05.177Z,7.23
2023-01-19T03:06:38.811Z,7.20
2023-01-19T03:10:07.846Z,7.20
2023-01-19T03:13:55.184Z,7.17
2023-01-19T03:17:24.581Z,7.16
2023-01-19T03:20:47.556Z,7.14
2023-01-19T03:24:16.545Z,7.12
2023-01-19T03:27:46.143Z,7.13
2023-01-19T03:31:15.249Z,7.14
2023-01-19T03:34:35.899Z,7.17
2023-01-19T03:37:58.826Z,7.17
2023-01-19T03:41:28.124Z,7.19
2023-01-19T03:44:57.191Z,7.21
2023-01-19T03:48:09.198Z,7.22
2023-01-19T03:51:38.213Z,7.23
2023-01-19T03:55:07.566Z,7.21
2023-01-19T03:58:36.711Z,7.20
2023-01-19T04:01:58.807Z,7.18
2023-01-19T04:05:27.715Z,7.16
2023-01-19T04:08:56.841Z,7.14
2023-01-19T04:12:26.034Z,7.10
2023-01-19T04:15:55.227Z,7.09
2023-01-19T04:19:24.369Z,7.05
2023-01-19T04:22:46.331Z,7.03
2023-01-19T04:26:15.431Z,6.98
2023-01-19T04:29:36.528Z,6.95
2023-01-19T04:32:58.827Z,6.93
2023-01-19T04:36:28.189Z,6.88
2023-01-19T04:39:57.129Z,6.88
2023-01-19T04:43:19.283Z,6.87
2023-01-19T04:46:31.351Z,6.85
2023-01-19T04:49:53.740Z,6.85
2023-01-19T04:53:15.722Z,6.83
2023-01-19T04:56:43.025Z,6.81
2023-01-19T05:00:10.491Z,6.78
2023-01-19T05:03:39.461Z,6.75
2023-01-19T05:06:59.733Z,6.74
2023-01-19T05:10:29.321Z,6.71
2023-01-19T05:13:58.231Z,6.70
2023-01-19T05:17:27.295Z,6.71
2023-01-19T05:20:49.398Z,6.70
2023-01-19T05:24:08.360Z,6.70
2023-01-19T05:27:37.461Z,6.68
2023-01-19T05:31:06.599Z,6.67
2023-01-19T05:34:36.167Z,6.65
2023-01-19T05:38:05.093Z,6.62
2023-01-19T05:41:34.040Z,6.57
2023-01-19T05:45:06.490Z,6.54
2023-01-19T05:48:35.506Z,6.53
2023-01-19T05:52:04.555Z,6.50
2023-01-19T05:55:33.371Z,6.48
2023-01-19T05:59:02.656Z,6.45
2023-01-19T06:02:31.869Z,6.43
2023-01-19T06:05:53.981Z,6.41
2023-01-19T06:09:23.119Z,6.40
2023-01-19T06:12:43.419Z,6.38
2023-01-19T06:16:12.820Z,6.31
2023-01-19T06:19:42.108Z,6.27
2023-01-19T06:23:11.770Z,6.21
2023-01-19T06:26:41.061Z,6.19
2023-01-19T06:30:10.242Z,6.17
2023-01-19T06:33:39.323Z,6.13
2023-01-19T06:37:08.755Z,6.07
2023-01-19T06:40:38.336Z,5.98
2023-01-19T06:44:00.735Z,5.92
2023-01-19T06:47:29.703Z,5.90
2023-01-19T06:50:52.257Z,5.87
2023-01-19T06:54:06.317Z,5.84
2023-01-19T06:57:25.316Z,5.83
2023-01-19T07:00:55.097Z,5.80
2023-01-19T07:04:24.520Z,5.77
2023-01-19T07:07:53.417Z,5.76
2023-01-19T07:11:31.120Z,5.76
2023-01-19T07:15:01.869Z,5.75
2023-01-19T07:18:30.943Z,5.76
2023-01-19T07:22:00.435Z,5.77
2023-01-19T07:25:29.835Z,5.77
2023-01-19T07:28:59.266Z,5.78
2023-01-19T07:32:26.735Z,5.80
2023-01-19T07:35:54.347Z,5.79
2023-01-19T07:39:16.543Z,5.81
2023-01-19T07:42:45.580Z,5.81
2023-01-19T07:46:15.048Z,5.81
2023-01-19T07:49:44.713Z,5.81
2023-01-19T07:53:13.831Z,5.81
2023-01-19T07:56:43.031Z,5.79
2023-01-19T08:00:12.834Z,5.77
2023-01-19T08:03:25.387Z,5.77
2023-01-19T08:07:03.577Z,5.77
2023-01-19T08:10:33.110Z,5.78
2023-01-19T08:14:02.227Z,5.77
2023-01-19T08:17:31.574Z,5.78
2023-01-19T08:21:01.182Z,5.79
2023-01-19T08:24:39.091Z,5.78
2023-01-19T08:28:08.660Z,5.76
2023-01-19T08:31:37.902Z,5.75
2023-01-19T08:35:07.122Z,5.72
2023-01-19T08:38:36.182Z,5.71
2023-01-19T08:42:05.334Z,5.69
2023-01-19T08:45:33.367Z,5.66
2023-01-19T08:49:02.375Z,5.65
2023-01-19T08:52:31.458Z,5.62
2023-01-19T08:56:00.534Z,5.59
2023-01-19T08:59:29.839Z,5.58
2023-01-19T09:02:59.012Z,5.58
2023-01-19T09:06:21.223Z,5.56
2023-01-19T09:09:49.594Z,5.55
2023-01-19T09:13:18.730Z,5.54
2023-01-19T09:16:48.043Z,5.51
2023-01-19T09:20:17.530Z,5.50
2023-01-19T09:23:46.921Z,5.48
2023-01-19T09:27:09.072Z,5.47
2023-01-19T09:30:38.147Z,5.46
2023-01-19T09:34:07.200Z,5.46
2023-01-19T09:37:36.421Z,5.45
2023-01-19T09:41:05.586Z,5.44
2023-01-19T09:44:44.267Z,5.43
2023-01-19T09:48:16.217Z,5.43
2023-01-19T09:51:45.626Z,5.43
2023-01-19T09:55:17.955Z,5.44
2023-01-19T09:58:37.110Z,5.46
2023-01-19T10:01:59.545Z,5.45
2023-01-19T10:05:35.290Z,5.45
2023-01-19T10:09:12.264Z,5.44
2023-01-19T10:12:36.605Z,5.41
2023-01-19T10:16:08.482Z,5.39
2023-01-19T10:19:45.635Z,5.36
2023-01-19T10:23:15.880Z,5.35
2023-01-19T10:26:45.127Z,5.32
2023-01-19T10:30:29.685Z,5.31
2023-01-19T10:33:58.933Z,5.31
2023-01-19T10:37:28.434Z,5.29
2023-01-19T10:41:00.107Z,5.29
2023-01-19T10:44:44.459Z,5.29
2023-01-19T10:48:15.963Z,5.25
2023-01-19T10:51:45.308Z,5.20
2023-01-19T10:55:14.567Z,5.18
2023-01-19T10:58:43.896Z,5.19
2023-01-19T11:02:07.461Z,5.19
2023-01-19T11:05:36.782Z,5.19
2023-01-19T11:09:06.069Z,5.19
2023-01-19T11:12:35.251Z,5.19
2023-01-19T11:16:07.483Z,5.18
2023-01-19T11:19:32.813Z,5.18
2023-01-19T11:23:10.831Z,5.14
2023-01-19T11:26:32.672Z,5.08
2023-01-19T11:30:04.734Z,5.07
2023-01-19T11:33:34.435Z,5.06
2023-01-19T11:37:06.911Z,5.03
2023-01-19T11:40:41.378Z,5.02
2023-01-19T11:44:10.675Z,5.03
2023-01-19T11:47:40.065Z,5.05
2023-01-19T11:51:15.303Z,5.06
2023-01-19T11:54:44.696Z,5.02
2023-01-19T11:58:13.962Z,4.99
2023-01-19T12:01:16.839Z,4.99
2023-01-19T12:04:46.104Z,4.98
2023-01-19T12:08:15.213Z,4.97
2023-01-19T12:11:44.895Z,4.96
2023-01-19T12:15:15.995Z,4.94
2023-01-19T12:18:48.346Z,4.94
2023-01-19T12:22:17.426Z,4.92
2023-01-19T12:25:55.322Z,4.90
2023-01-19T12:29:24.680Z,4.91
2023-01-19T12:32:55.335Z,4.91
2023-01-19T12:36:35.315Z,4.88
2023-01-19T12:40:04.476Z,4.84
2023-01-19T12:43:35.085Z,4.82
2023-01-19T12:47:08.965Z,4.80
2023-01-19T12:50:38.264Z,4.80
2023-01-19T12:54:07.604Z,4.79
2023-01-19T12:57:36.619Z,4.80
2023-01-19T13:01:06.074Z,4.80
2023-01-19T13:04:44.510Z,4.79
2023-01-19T13:08:14.119Z,4.81
2023-01-19T13:12:00.640Z,4.79
2023-01-19T13:15:32.982Z,4.75
2023-01-19T13:19:02.355Z,4.69
2023-01-19T13:22:31.794Z,4.66
2023-01-19T13:26:09.959Z,4.62
2023-01-19T13:29:39.138Z,4.58
2023-01-19T13:33:14.526Z,4.54
2023-01-19T13:36:43.689Z,4.51
2023-01-19T13:40:21.648Z,4.49
2023-01-19T13:43:52.209Z,4.47
2023-01-19T13:47:21.399Z,4.46
2023-01-19T13:51:06.072Z,4.46
2023-01-19T13:54:37.624Z,4.45
2023-01-19T13:58:12.801Z,4.41
2023-01-19T14:01:41.917Z,4.38
2023-01-19T14:05:26.768Z,4.33
2023-01-19T14:09:01.388Z,4.30
2023-01-19T14:12:30.666Z,4.25
2023-01-19T14:16:00.012Z,4.22
2023-01-19T14:19:29.606Z,4.19
2023-01-19T14:23:01.596Z,4.15
2023-01-19T14:26:31.857Z,4.12
2023-01-19T14:30:03.896Z,4.12
2023-01-19T14:33:33.147Z,4.12
2023-01-19T14:37:17.712Z,4.12
2023-01-19T14:40:47.318Z,4.13
2023-01-19T14:44:17.040Z,4.14
2023-01-19T14:47:49.137Z,4.15
2023-01-19T14:51:42.903Z,4.15
2023-01-19T14:55:17.315Z,4.17
2023-01-19T14:58:46.751Z,4.19
2023-01-19T15:02:15.885Z,4.20
2023-01-19T15:05:45.314Z,4.21
2023-01-19T15:09:17.816Z,4.24
2023-01-19T15:12:47.274Z,4.28
2023-01-19T15:16:07.110Z,4.30
2023-01-19T15:19:36.327Z,4.32
2023-01-19T15:23:05.977Z,4.31
2023-01-19T15:26:34.856Z,4.27
2023-01-19T15:30:04.252Z,4.28
2023-01-19T15:33:33.775Z,4.27
2023-01-19T15:36:54.088Z,4.26
2023-01-19T15:40:23.506Z,4.26
2023-01-19T15:43:52.616Z,4.26
2023-01-19T15:47:15.072Z,4.24
2023-01-19T15:50:44.251Z,4.22
2023-01-19T15:54:16.539Z,4.22
2023-01-19T15:57:45.596Z,4.21
2023-01-19T16:01:14.828Z,4.18
2023-01-19T16:04:44.207Z,4.18
2023-01-19T16:08:12.999Z,4.15
2023-01-19T16:11:34.454Z,4.14
2023-01-19T16:15:03.821Z,4.13
2023-01-19T16:18:33.621Z,4.12
2023-01-19T16:21:51.972Z,4.09
2023-01-19T16:25:21.314Z,4.07
2023-01-19T16:28:33.738Z,4.04
2023-01-19T16:32:02.808Z,4.02
2023-01-19T16:35:31.909Z,4.00
2023-01-19T16:39:01.286Z,3.98
2023-01-19T16:42:30.881Z,3.98
2023-01-19T16:45:59.678Z,3.98
2023-01-19T16:49:28.655Z,4.01
2023-01-19T16:52:57.857Z,4.03
2023-01-19T16:56:27.351Z,4.06
2023-01-19T16:59:56.335Z,4.10
2023-01-19T17:03:15.837Z,4.13
2023-01-19T17:06:44.974Z,4.17
2023-01-19T17:10:14.293Z,4.22
2023-01-19T17:13:43.623Z,4.29
2023-01-19T17:17:12.685Z,4.34
2023-01-19T17:20:41.601Z,4.39
2023-01-19T17:24:10.388Z,4.47
2023-01-19T17:27:19.249Z,4.57
2023-01-19T17:30:48.816Z,4.67
2023-01-19T17:34:17.907Z,4.76
2023-01-19T17:37:47.089Z,4.85
2023-01-19T17:41:16.178Z,4.93
2023-01-19T17:44:45.332Z,5.04
2023-01-19T17:48:14.495Z,5.15
2023-01-19T17:51:46.761Z,5.25
2023-01-19T17:54:58.907Z,5.35
2023-01-19T17:58:28.448Z,5.42
2023-01-19T18:01:58.122Z,5.50
2023-01-19T18:05:17.621Z,5.56
2023-01-19T18:08:46.954Z,5.63
2023-01-19T18:11:59.164Z,5.69
2023-01-19T18:15:27.131Z,5.73
2023-01-19T18:18:48.877Z,5.77
2023-01-19T18:21:58.356Z,5.80
2023-01-19T18:25:27.578Z,5.83
2023-01-19T18:28:56.930Z,5.86
2023-01-19T18:32:16.567Z,5.90
2023-01-19T18:35:46.122Z,5.93
2023-01-19T18:39:15.533Z,5.99
2023-01-19T18:42:44.662Z,6.04
2023-01-19T18:46:14.111Z,6.09
2023-01-19T18:49:43.348Z,6.14
2023-01-19T18:53:12.870Z,6.22
2023-01-19T18:56:35.020Z,6.29
2023-01-19T19:00:03.698Z,6.33
2023-01-19T19:03:32.631Z,6.38
2023-01-19T19:07:01.559Z,6.43
2023-01-19T19:10:30.509Z,6.46
2023-01-19T19:13:59.919Z,6.51
2023-01-19T19:17:29.005Z,6.56
2023-01-19T19:20:58.412Z,6.62
2023-01-19T19:24:27.864Z,6.67
2023-01-19T19:27:36.672Z,6.71
2023-01-19T19:31:06.073Z,6.76
2023-01-19T19:34:38.542Z,6.81
2023-01-19T19:38:08.126Z,6.83
2023-01-19T19:41:37.049Z,6.87
2023-01-19T19:44:59.811Z,6.92
2023-01-19T19:48:29.186Z,6.94
2023-01-19T19:51:58.457Z,6.96
2023-01-19T19:55:27.658Z,6.99
2023-01-19T19:58:40.651Z,7.01
2023-01-19T20:02:09.913Z,7.01
2023-01-19T20:05:39.326Z,7.06
2023-01-19T20:09:08.589Z,7.08
2023-01-19T20:12:18.043Z,7.07
2023-01-19T20:15:47.672Z,7.04
2023-01-19T20:19:09.850Z,7.03
2023-01-19T20:22:31.550Z,7.04
2023-01-19T20:25:51.267Z,7.04
2023-01-19T20:29:20.458Z,7.04
2023-01-19T20:32:52.850Z,7.03
2023-01-19T20:36:21.924Z,7.02
2023-01-19T20:39:53.877Z,7.02
2023-01-19T20:43:22.953Z,7.03
2023-01-19T20:46:50.839Z,7.06
2023-01-19T20:50:20.056Z,7.11
2023-01-19T20:53:49.339Z,7.15
2023-01-19T20:57:18.028Z,7.18
2023-01-19T21:00:48.597Z,7.22
2023-01-19T21:04:17.297Z,7.27
2023-01-19T21:07:46.600Z,7.33
2023-01-19T21:11:15.989Z,7.37
2023-01-19T21:14:45.370Z,7.40
2023-01-19T21:18:14.227Z,7.41
2023-01-19T21:21:43.331Z,7.43
2023-01-19T21:25:13.144Z,7.41
2023-01-19T21:28:42.415Z,7.39
2023-01-19T21:32:11.572Z,7.38
2023-01-19T21:35:38.899Z,7.38
2023-01-19T21:39:01.124Z,7.38
2023-01-19T21:42:30.411Z,7.42
2023-01-19T21:45:59.654Z,7.46
2023-01-19T21:49:29.009Z,7.47
2023-01-19T21:52:58.418Z,7.47
2023-01-19T21:56:21.281Z,7.48
2023-01-19T21:59:50.370Z,7.49
2023-01-19T22:03:19.453Z,7.47
2023-01-19T22:06:48.888Z,7.46
2023-01-19T22:10:17.967Z,7.42
2023-01-19T22:13:40.381Z,7.43
2023-01-19T22:17:09.590Z,7.44
2023-01-19T22:20:38.884Z,7.44
2023-01-19T22:24:08.247Z,7.44
2023-01-19T22:27:37.506Z,7.46
2023-01-19T22:31:06.878Z,7.49
2023-01-19T22:34:35.902Z,7.57
2023-01-19T22:37:51.991Z,7.65
2023-01-19T22:41:00.706Z,7.71
2023-01-19T22:44:29.845Z,7.76
2023-01-19T22:47:59.204Z,7.81
2023-01-19T22:51:28.730Z,7.85
2023-01-19T22:54:57.686Z,7.92
2023-01-19T22:58:26.364Z,7.97
2023-01-19T23:01:58.496Z,8.02
2023-01-19T23:05:28.012Z,8.04
2023-01-19T23:08:47.595Z,8.10
2023-01-19T23:12:16.646Z,8.13
2023-01-19T23:15:45.436Z,8.14
2023-01-19T23:19:14.381Z,8.16
2023-01-19T23:22:43.226Z,8.16
2023-01-19T23:26:12.346Z,8.18
2023-01-19T23:29:41.711Z,8.20
2023-01-19T23:33:10.920Z,8.22
2023-01-19T23:36:33.105Z,8.21
2023-01-19T23:40:01.223Z,8.20
2023-01-19T23:43:30.178Z,8.17
2023-01-19T23:46:59.569Z,8.16
2023-01-19T23:50:28.801Z,8.11
2023-01-19T23:53:50.912Z,8.05
2023-01-19T23:57:29.477Z,7.97
